createdAt,value
2022-08-02T00:00:49.848Z,99.99
2022-08-02T00:01:50.964Z,99.99
2022-08-02T00:02:49.825Z,99.99
2022-08-02T00:03:49.813Z,99.99
2022-08-02T00:04:49.806Z,99.99
2022-08-02T00:05:53.163Z,99.99
2022-08-02T00:06:49.813Z,99.99
2022-08-02T00:07:49.772Z,99.99
2022-08-02T00:08:49.759Z,99.99
2022-08-02T00:09:49.747Z,99.99
2022-08-02T00:10:49.738Z,99.99
2022-08-02T00:11:49.748Z,99.99
2022-08-02T00:12:49.726Z,99.99
2022-08-02T00:13:49.705Z,99.99
2022-08-02T00:14:49.696Z,99.99
2022-08-02T00:15:49.678Z,99.99
2022-08-02T00:16:49.678Z,99.99
2022-08-02T00:17:49.680Z,99.99
2022-08-02T00:18:49.677Z,99.99
2022-08-02T00:19:49.635Z,99.99
2022-08-02T00:20:49.628Z,99.99
2022-08-02T00:21:49.617Z,99.99
2022-08-02T00:22:49.608Z,99.99
2022-08-02T00:24:29.607Z,99.99
2022-08-02T00:24:50.589Z,99.99
2022-08-02T00:25:55.042Z,99.99
2022-08-02T00:26:50.559Z,99.99
2022-08-02T00:27:49.550Z,99.99
2022-08-02T00:28:49.568Z,99.99
2022-08-02T00:29:52.794Z,99.99
2022-08-02T00:30:57.335Z,99.99
2022-08-02T00:31:49.505Z,99.99
2022-08-02T00:32:49.496Z,99.99
2022-08-02T00:34:26.226Z,99.99
2022-08-02T00:34:50.497Z,99.99
2022-08-02T00:35:49.457Z,99.99
2022-08-02T00:36:49.452Z,99.99
2022-08-02T00:37:49.439Z,99.99
2022-08-02T00:38:49.435Z,99.99
2022-08-02T00:39:49.416Z,99.99
2022-08-02T00:40:49.434Z,99.99
2022-08-02T00:41:49.398Z,99.99
2022-08-02T00:42:49.396Z,99.99
2022-08-02T00:43:49.369Z,99.99
2022-08-02T00:44:49.387Z,99.99
2022-08-02T00:46:02.268Z,99.99
2022-08-02T00:46:50.338Z,99.99
2022-08-02T00:47:49.326Z,99.99
2022-08-02T00:48:49.751Z,99.99
2022-08-02T00:49:49.329Z,99.99
2022-08-02T00:50:49.298Z,99.99
2022-08-02T00:51:49.305Z,99.99
2022-08-02T00:52:49.276Z,99.99
2022-08-02T00:53:49.257Z,99.99
2022-08-02T00:54:49.247Z,99.99
2022-08-02T00:55:49.240Z,99.99
2022-08-02T00:56:50.165Z,99.99
2022-08-02T00:57:49.238Z,99.99
2022-08-02T00:58:49.210Z,99.99
2022-08-02T00:59:49.199Z,99.99
2022-08-02T01:00:49.188Z,99.99
2022-08-02T01:01:56.366Z,99.99
2022-08-02T01:02:50.187Z,99.99
2022-08-02T01:03:49.155Z,99.99
2022-08-02T01:04:49.142Z,99.99
2022-08-02T01:06:02.151Z,99.99
2022-08-02T01:06:50.119Z,99.99
2022-08-02T01:07:49.129Z,99.99
2022-08-02T01:08:49.099Z,99.99
2022-08-02T01:09:49.086Z,99.99
2022-08-02T01:10:49.099Z,99.99
2022-08-02T01:11:49.058Z,99.99
2022-08-02T01:12:49.058Z,99.99
2022-08-02T01:13:49.039Z,99.99
2022-08-02T01:14:49.810Z,99.99
2022-08-02T01:15:49.019Z,99.99
2022-08-02T01:16:49.032Z,99.99
2022-08-02T01:17:49.019Z,99.99
2022-08-02T01:18:48.991Z,99.99
2022-08-02T01:19:48.979Z,99.99
2022-08-02T01:20:48.962Z,99.99
2022-08-02T01:21:48.959Z,99.99
2022-08-02T01:23:04.373Z,99.99
2022-08-02T01:23:49.929Z,99.99
2022-08-02T01:24:48.922Z,99.99
2022-08-02T01:25:48.910Z,99.99
2022-08-02T01:26:48.900Z,99.99
2022-08-02T01:27:48.902Z,99.99
2022-08-02T01:28:48.881Z,99.99
2022-08-02T01:29:48.864Z,99.99
2022-08-02T01:30:48.851Z,99.99
2022-08-02T01:31:48.852Z,99.99
2022-08-02T01:32:48.852Z,99.99
2022-08-02T01:33:48.813Z,99.99
2022-08-02T01:34:48.812Z,99.99
2022-08-02T01:35:51.143Z,99.99
2022-08-02T01:36:48.784Z,99.99
2022-08-02T01:37:48.772Z,99.99
2022-08-02T01:38:48.790Z,99.99
2022-08-02T01:39:48.752Z,99.99
2022-08-02T01:40:48.745Z,99.99
2022-08-02T01:41:48.732Z,99.99
2022-08-02T01:42:49.743Z,99.99
2022-08-02T01:43:48.713Z,99.99
2022-08-02T01:44:48.723Z,99.99
2022-08-02T01:45:48.687Z,99.99
2022-08-02T01:46:48.683Z,99.99
2022-08-02T01:47:48.675Z,99.99
2022-08-02T01:48:48.653Z,99.99
2022-08-02T01:49:48.666Z,99.99
2022-08-02T01:50:48.634Z,99.99
2022-08-02T01:51:48.624Z,99.99
2022-08-02T01:52:53.168Z,99.99
2022-08-02T01:53:49.596Z,99.99
2022-08-02T01:54:48.617Z,99.99
2022-08-02T01:55:57.061Z,99.99
2022-08-02T01:56:49.566Z,99.99
2022-08-02T01:57:48.553Z,99.99
2022-08-02T01:58:48.545Z,99.99
2022-08-02T01:59:48.533Z,99.99
2022-08-02T02:00:48.572Z,99.99
2022-08-02T02:01:48.561Z,99.99
2022-08-02T02:02:48.506Z,99.99
2022-08-02T02:03:48.488Z,99.99
2022-08-02T02:04:48.502Z,99.99
2022-08-02T02:05:48.491Z,99.99
2022-08-02T02:06:48.456Z,99.99
2022-08-02T02:07:48.448Z,99.99
2022-08-02T02:08:48.435Z,99.99
2022-08-02T02:09:50.723Z,99.99
2022-08-02T02:10:48.419Z,99.99
2022-08-02T02:12:14.451Z,99.99
2022-08-02T02:12:49.397Z,99.99
2022-08-02T02:13:48.377Z,99.99
2022-08-02T02:14:49.291Z,99.99
2022-08-02T02:15:48.356Z,99.99
2022-08-02T02:16:48.366Z,99.99
2022-08-02T02:17:52.945Z,99.99
2022-08-02T02:18:49.326Z,99.99
2022-08-02T02:19:48.316Z,99.99
2022-08-02T02:20:48.298Z,99.99
2022-08-02T02:21:48.319Z,99.99
2022-08-02T02:22:48.423Z,99.99
2022-08-02T02:23:48.267Z,99.99
2022-08-02T02:24:48.278Z,99.99
2022-08-02T02:25:48.250Z,99.99
2022-08-02T02:26:52.532Z,99.99
2022-08-02T02:27:48.227Z,99.99
2022-08-02T02:28:48.217Z,99.99
2022-08-02T02:29:48.198Z,99.99
2022-08-02T02:30:48.190Z,99.99
2022-08-02T02:31:48.199Z,99.99
2022-08-02T02:32:48.171Z,99.99
2022-08-02T02:33:48.162Z,99.99
2022-08-02T02:34:48.150Z,99.99
2022-08-02T02:35:48.138Z,99.99
2022-08-02T02:36:48.130Z,99.99
2022-08-02T02:37:48.141Z,99.99
2022-08-02T02:38:48.107Z,99.99
2022-08-02T02:39:48.089Z,99.99
2022-08-02T02:40:48.082Z,99.99
2022-08-02T02:41:48.071Z,99.99
2022-08-02T02:42:49.549Z,99.99
2022-08-02T02:43:48.052Z,99.99
2022-08-02T02:44:48.038Z,99.99
2022-08-02T02:45:48.022Z,99.99
2022-08-02T02:46:48.022Z,99.99
2022-08-02T02:47:48.001Z,99.99
2022-08-02T02:48:48.019Z,99.99
2022-08-02T02:49:47.982Z,99.99
2022-08-02T02:50:47.972Z,99.99
2022-08-02T02:51:47.961Z,99.99
2022-08-02T02:52:47.963Z,99.99
2022-08-02T02:54:30.875Z,99.99
2022-08-02T02:54:48.927Z,99.99
2022-08-02T02:56:01.413Z,99.99
2022-08-02T02:56:48.904Z,99.99
2022-08-02T02:57:47.901Z,99.99
2022-08-02T02:58:47.885Z,99.99
2022-08-02T02:59:49.611Z,99.99
2022-08-02T03:00:47.915Z,99.99
2022-08-02T03:01:57.031Z,99.99
2022-08-02T03:02:48.854Z,99.99
2022-08-02T03:03:47.831Z,99.99
2022-08-02T03:04:56.811Z,99.99
2022-08-02T03:05:48.803Z,99.99
2022-08-02T03:07:02.572Z,99.99
2022-08-02T03:07:47.783Z,99.99
2022-08-02T03:08:47.773Z,99.99
2022-08-02T03:09:54.288Z,99.99
2022-08-02T03:10:48.751Z,99.99
2022-08-02T03:11:47.745Z,99.99
2022-08-02T03:12:47.732Z,99.99
2022-08-02T03:13:47.713Z,99.99
2022-08-02T03:14:49.394Z,99.99
2022-08-02T03:15:47.695Z,99.99
2022-08-02T03:16:47.685Z,99.99
2022-08-02T03:17:47.712Z,99.99
2022-08-02T03:18:47.665Z,99.99
2022-08-02T03:19:47.674Z,99.99
2022-08-02T03:20:47.644Z,99.99
2022-08-02T03:21:47.630Z,99.99
2022-08-02T03:22:47.626Z,99.99
2022-08-02T03:23:47.606Z,99.99
2022-08-02T03:24:47.622Z,99.99
2022-08-02T03:25:47.583Z,99.99
2022-08-02T03:26:47.576Z,99.99
2022-08-02T03:27:47.559Z,99.99
2022-08-02T03:28:47.547Z,99.99
2022-08-02T03:29:47.538Z,99.99
2022-08-02T03:30:47.547Z,99.99
2022-08-02T03:31:47.525Z,99.99
2022-08-02T03:32:47.506Z,99.99
2022-08-02T03:33:47.504Z,99.99
2022-08-02T03:34:47.490Z,99.99
2022-08-02T03:35:47.497Z,99.99
2022-08-02T03:36:47.458Z,99.99
2022-08-02T03:37:47.457Z,99.99
2022-08-02T03:38:47.437Z,99.99
2022-08-02T03:39:52.880Z,99.99
2022-08-02T03:40:48.437Z,99.99
2022-08-02T03:41:47.416Z,99.99
2022-08-02T03:42:47.395Z,99.99
2022-08-02T03:43:47.386Z,99.99
2022-08-02T03:44:47.367Z,99.99
2022-08-02T03:45:47.370Z,99.99
2022-08-02T03:46:47.367Z,99.99
2022-08-02T03:47:47.337Z,99.99
2022-08-02T03:48:47.329Z,99.99
2022-08-02T03:49:47.318Z,99.99
2022-08-02T03:50:47.300Z,99.99
2022-08-02T03:51:47.324Z,99.99
2022-08-02T03:52:47.279Z,99.99
2022-08-02T03:53:47.269Z,99.99
2022-08-02T03:54:47.259Z,99.99
2022-08-02T03:55:47.251Z,99.99
2022-08-02T03:56:47.229Z,99.99
2022-08-02T03:57:47.248Z,99.99
2022-08-02T03:58:49.462Z,99.99
2022-08-02T03:59:47.210Z,99.99
2022-08-02T04:00:47.242Z,99.99
2022-08-02T04:01:47.180Z,99.99
2022-08-02T04:02:47.181Z,99.99
2022-08-02T04:03:47.150Z,99.99
2022-08-02T04:04:47.140Z,99.99
2022-08-02T04:06:03.819Z,99.99
2022-08-02T04:06:48.118Z,99.99
2022-08-02T04:08:33.316Z,99.99
2022-08-02T04:08:48.093Z,99.99
2022-08-02T04:09:47.082Z,99.99
2022-08-02T04:10:47.071Z,99.99
2022-08-02T04:11:47.061Z,99.99
2022-08-02T04:12:47.073Z,99.99
2022-08-02T04:13:47.062Z,99.99
2022-08-02T04:14:47.033Z,99.99
2022-08-02T04:15:47.011Z,99.99
2022-08-02T04:16:47.001Z,99.99
2022-08-02T04:17:47.022Z,99.99
2022-08-02T04:18:46.986Z,99.99
2022-08-02T04:19:46.971Z,99.99
2022-08-02T04:20:46.960Z,99.99
2022-08-02T04:21:51.217Z,99.99
2022-08-02T04:22:47.961Z,99.99
2022-08-02T04:23:46.927Z,99.99
2022-08-02T04:24:46.913Z,99.99
2022-08-02T04:25:46.903Z,99.99
2022-08-02T04:26:48.812Z,99.99
2022-08-02T04:27:50.607Z,99.99
2022-08-02T04:28:47.911Z,99.99
2022-08-02T04:29:47.218Z,99.99
2022-08-02T04:30:46.845Z,99.99
2022-08-02T04:31:46.835Z,99.99
2022-08-02T04:32:46.833Z,99.99
2022-08-02T04:33:46.814Z,99.99
2022-08-02T04:35:05.048Z,99.99
2022-08-02T04:35:47.795Z,99.99
2022-08-02T04:36:46.774Z,99.99
2022-08-02T04:38:09.391Z,99.99
2022-08-02T04:38:47.756Z,99.99
2022-08-02T04:39:46.752Z,99.99
2022-08-02T04:40:46.760Z,99.99
2022-08-02T04:41:46.726Z,99.99
2022-08-02T04:42:46.715Z,99.99
2022-08-02T04:43:46.704Z,99.99
2022-08-02T04:44:46.694Z,99.99
2022-08-02T04:45:46.705Z,99.99
2022-08-02T04:46:46.665Z,99.99
2022-08-02T04:47:54.472Z,99.99
2022-08-02T04:48:47.644Z,99.99
2022-08-02T04:49:46.634Z,99.99
2022-08-02T04:50:46.624Z,99.99
2022-08-02T04:51:46.645Z,99.99
2022-08-02T04:52:46.605Z,99.99
2022-08-02T04:53:46.587Z,99.99
2022-08-02T04:54:46.578Z,99.99
2022-08-02T04:55:46.568Z,99.99
2022-08-02T04:56:46.558Z,99.99
2022-08-02T04:57:52.928Z,99.99
2022-08-02T04:58:47.532Z,99.99
2022-08-02T04:59:47.371Z,99.99
2022-08-02T05:00:46.575Z,99.99
2022-08-02T05:01:46.501Z,99.99
2022-08-02T05:02:46.508Z,99.99
2022-08-02T05:03:46.862Z,99.99
2022-08-02T05:04:46.470Z,99.99
2022-08-02T05:05:46.457Z,99.99
2022-08-02T05:06:46.447Z,99.99
2022-08-02T05:07:46.459Z,99.99
2022-08-02T05:08:46.419Z,99.99
2022-08-02T05:09:47.418Z,99.99
2022-08-02T05:10:46.400Z,99.99
2022-08-02T05:11:54.851Z,99.99
2022-08-02T05:12:47.401Z,99.99
2022-08-02T05:13:57.695Z,99.99
2022-08-02T05:14:47.370Z,99.99
2022-08-02T05:15:46.349Z,99.99
2022-08-02T05:16:46.339Z,99.99
2022-08-02T05:17:47.557Z,99.99
2022-08-02T05:18:46.319Z,99.99
2022-08-02T05:19:46.331Z,99.99
2022-08-02T05:20:46.291Z,99.99
2022-08-02T05:21:46.280Z,99.99
2022-08-02T05:22:46.271Z,99.99
2022-08-02T05:23:46.261Z,99.99
2022-08-02T05:24:46.241Z,99.99
2022-08-02T05:25:46.255Z,99.99
2022-08-02T05:26:46.220Z,99.99
2022-08-02T05:27:46.219Z,99.99
2022-08-02T05:28:46.204Z,99.99
2022-08-02T05:29:53.561Z,99.99
2022-08-02T05:30:47.172Z,99.99
2022-08-02T05:31:46.193Z,99.99
2022-08-02T05:32:46.162Z,99.99
2022-08-02T05:33:46.151Z,99.99
2022-08-02T05:34:46.133Z,99.99
2022-08-02T05:35:46.123Z,99.99
2022-08-02T05:36:46.143Z,99.99
2022-08-02T05:37:46.104Z,99.99
2022-08-02T05:38:49.737Z,99.99
2022-08-02T05:39:55.036Z,99.99
2022-08-02T05:40:54.460Z,99.99
2022-08-02T05:41:47.081Z,99.99
2022-08-02T05:42:46.045Z,99.99
2022-08-02T05:43:46.044Z,99.99
2022-08-02T05:44:46.025Z,99.99
2022-08-02T05:45:46.015Z,99.99
2022-08-02T05:46:46.044Z,99.99
2022-08-02T05:47:45.994Z,99.99
2022-08-02T05:48:45.974Z,99.99
2022-08-02T05:49:45.972Z,99.99
2022-08-02T05:50:45.965Z,99.99
2022-08-02T05:51:45.945Z,99.99
2022-08-02T05:52:45.955Z,99.99
2022-08-02T05:53:45.926Z,99.99
2022-08-02T05:54:45.951Z,99.99
2022-08-02T05:55:45.917Z,99.99
2022-08-02T05:56:45.916Z,99.99
2022-08-02T05:57:45.884Z,99.99
2022-08-02T05:58:45.894Z,99.99
2022-08-02T05:59:45.866Z,99.99
2022-08-02T06:00:45.852Z,99.99
2022-08-02T06:01:45.898Z,99.99
2022-08-02T06:02:45.828Z,99.99
2022-08-02T06:03:45.838Z,99.99
2022-08-02T06:04:45.806Z,99.99
2022-08-02T06:05:45.796Z,99.99
2022-08-02T06:06:45.777Z,99.99
2022-08-02T06:07:45.776Z,99.99
2022-08-02T06:08:47.856Z,99.99
2022-08-02T06:09:45.748Z,99.99
2022-08-02T06:10:45.738Z,99.99
2022-08-02T06:12:02.259Z,99.99
2022-08-02T06:12:46.715Z,99.99
2022-08-02T06:13:45.707Z,99.99
2022-08-02T06:14:45.718Z,99.99
2022-08-02T06:15:53.292Z,99.99
2022-08-02T06:16:46.668Z,99.99
2022-08-02T06:17:45.949Z,99.98
2022-08-02T06:18:45.645Z,99.87
2022-08-02T06:19:51.884Z,99.77
2022-08-02T06:20:46.637Z,99.57
2022-08-02T06:22:33.663Z,99.32
2022-08-02T06:22:46.841Z,99.22
2022-08-02T06:23:58.063Z,99.12
2022-08-02T06:24:46.599Z,98.92
2022-08-02T06:25:49.837Z,98.61
2022-08-02T06:26:46.560Z,98.36
2022-08-02T06:27:45.553Z,98.27
2022-08-02T06:28:45.532Z,98.16
2022-08-02T06:29:45.550Z,98.27
2022-08-02T06:31:42.311Z,98.07
2022-08-02T06:32:42.302Z,98.02
2022-08-02T06:33:42.290Z,97.71
2022-08-02T06:34:42.282Z,97.61
2022-08-02T06:35:42.292Z,97.61
2022-08-02T06:36:42.273Z,97.51
2022-08-02T06:37:42.273Z,97.31
2022-08-02T06:38:42.241Z,97.27
2022-08-02T06:39:43.223Z,97.27
2022-08-02T06:40:42.243Z,97.27
2022-08-02T06:41:42.223Z,97.06
2022-08-02T06:42:42.191Z,96.96
2022-08-02T06:43:42.188Z,97.02
2022-08-02T06:44:48.917Z,97.12
2022-08-02T06:45:43.183Z,97.02
2022-08-02T06:47:11.822Z,96.71
2022-08-02T06:47:43.165Z,96.61
2022-08-02T06:48:42.164Z,96.41
2022-08-02T06:49:51.413Z,96.31
2022-08-02T06:50:43.144Z,95.96
2022-08-02T06:51:42.117Z,95.76
2022-08-02T06:52:42.083Z,95.76
2022-08-02T06:53:42.096Z,95.76
2022-08-02T06:54:42.067Z,95.76
2022-08-02T06:55:43.889Z,95.66
2022-08-02T06:56:42.036Z,95.72
2022-08-02T06:57:42.046Z,95.72
2022-08-02T06:58:42.027Z,95.51
2022-08-02T06:59:42.040Z,95.31
2022-08-02T07:00:41.989Z,95.11
2022-08-02T07:01:42.036Z,95.11
2022-08-02T07:02:41.981Z,94.96
2022-08-02T07:03:41.960Z,94.96
2022-08-02T07:04:41.948Z,94.87
2022-08-02T07:05:41.959Z,94.46
2022-08-02T07:06:41.928Z,94.42
2022-08-02T07:07:41.910Z,94.72
2022-08-02T07:08:41.901Z,94.62
2022-08-02T07:10:00.708Z,94.62
2022-08-02T07:10:42.918Z,94.32
2022-08-02T07:11:41.868Z,93.57
2022-08-02T07:12:41.859Z,93.27
2022-08-02T07:13:41.841Z,93.37
2022-08-02T07:14:41.862Z,93.27
2022-08-02T07:15:45.823Z,93.16
2022-08-02T07:16:42.814Z,93.16
2022-08-02T07:17:41.799Z,93.46
2022-08-02T07:18:41.791Z,93.22
2022-08-02T07:19:41.801Z,93.12
2022-08-02T07:20:41.772Z,92.92
2022-08-02T07:21:59.436Z,92.72
2022-08-02T07:22:42.761Z,92.72
2022-08-02T07:23:41.735Z,92.61
2022-08-02T07:24:41.732Z,92.68
2022-08-02T07:26:03.007Z,92.27
2022-08-02T07:27:08.641Z,91.87
2022-08-02T07:27:42.693Z,92.17
2022-08-02T07:28:41.684Z,92.07
2022-08-02T07:29:46.399Z,91.97
2022-08-02T07:30:42.734Z,91.52
2022-08-02T07:31:41.671Z,91.22
2022-08-02T07:32:41.643Z,91.02
2022-08-02T07:33:44.413Z,91.22
2022-08-02T07:34:42.754Z,91.13
2022-08-02T07:35:42.615Z,91.02
2022-08-02T07:36:41.593Z,90.92
2022-08-02T07:37:55.614Z,90.72
2022-08-02T07:38:42.579Z,90.72
2022-08-02T07:39:41.563Z,90.88
2022-08-02T07:40:41.567Z,90.68
2022-08-02T07:41:41.534Z,90.78
2022-08-02T07:42:41.527Z,90.28
2022-08-02T07:43:41.506Z,89.98
2022-08-02T07:44:41.502Z,89.23
2022-08-02T07:45:45.875Z,88.93
2022-08-02T07:46:42.475Z,88.73
2022-08-02T07:47:41.466Z,88.73
2022-08-02T07:48:41.457Z,88.83
2022-08-02T07:49:41.448Z,88.32
2022-08-02T07:50:41.457Z,88.18
2022-08-02T07:51:41.425Z,87.88
2022-08-02T07:52:41.407Z,87.78
2022-08-02T07:53:51.245Z,87.98
2022-08-02T07:54:42.390Z,88.48
2022-08-02T07:55:41.413Z,88.18
2022-08-02T07:56:41.453Z,88.24
2022-08-02T07:57:45.804Z,87.84
2022-08-02T07:58:42.371Z,87.34
2022-08-02T07:59:41.332Z,87.04
2022-08-02T08:00:41.349Z,86.94
2022-08-02T08:01:41.426Z,87.00
2022-08-02T08:02:41.304Z,87.00
2022-08-02T08:03:41.301Z,87.50
2022-08-02T08:04:41.281Z,87.30
2022-08-02T08:05:41.298Z,86.60
2022-08-02T08:06:41.271Z,86.69
2022-08-02T08:07:41.249Z,85.75
2022-08-02T08:08:41.233Z,85.35
2022-08-02T08:09:41.239Z,85.25
2022-08-02T08:10:41.212Z,84.45
2022-08-02T08:11:41.228Z,84.15
2022-08-02T08:12:41.193Z,84.31
2022-08-02T08:13:41.182Z,83.41
2022-08-02T08:14:41.165Z,83.81
2022-08-02T08:15:41.155Z,83.31
2022-08-02T08:16:41.166Z,82.77
2022-08-02T08:17:41.163Z,82.27
2022-08-02T08:18:41.124Z,82.17
2022-08-02T08:19:50.130Z,82.63
2022-08-02T08:20:42.115Z,82.13
2022-08-02T08:21:41.095Z,81.53
2022-08-02T08:22:41.095Z,81.83
2022-08-02T08:23:41.075Z,82.23
2022-08-02T08:24:41.063Z,81.39
2022-08-02T08:25:42.070Z,81.99
2022-08-02T08:26:41.065Z,81.89
2022-08-02T08:27:41.064Z,81.29
2022-08-02T08:28:41.096Z,81.39
2022-08-02T08:29:41.025Z,80.49
2022-08-02T08:30:40.986Z,81.09
2022-08-02T08:31:40.980Z,81.19
2022-08-02T08:32:40.966Z,80.59
2022-08-02T08:33:40.976Z,80.73
2022-08-02T08:34:40.950Z,81.59
2022-08-02T08:35:40.935Z,81.59
2022-08-02T08:36:40.922Z,81.69
2022-08-02T08:37:40.907Z,81.05
2022-08-02T08:38:40.928Z,80.55
2022-08-02T08:39:57.534Z,80.32
2022-08-02T08:40:41.880Z,79.91
2022-08-02T08:41:40.877Z,79.38
2022-08-02T08:42:40.857Z,79.17
2022-08-02T08:43:40.849Z,77.28
2022-08-02T08:44:40.869Z,76.68
2022-08-02T08:45:40.821Z,75.18
2022-08-02T08:46:40.809Z,75.35
2022-08-02T08:47:40.805Z,74.95
2022-08-02T08:48:40.817Z,74.55
2022-08-02T08:49:52.627Z,74.68
2022-08-02T08:50:41.772Z,75.25
2022-08-02T08:51:40.762Z,74.29
2022-08-02T08:52:40.751Z,74.55
2022-08-02T08:53:41.141Z,74.25
2022-08-02T08:54:40.724Z,73.85
2022-08-02T08:55:40.713Z,73.95
2022-08-02T08:56:40.704Z,73.55
2022-08-02T08:57:40.692Z,73.65
2022-08-02T08:58:40.676Z,72.85
2022-08-02T08:59:40.695Z,72.05
2022-08-02T09:00:40.661Z,72.25
2022-08-02T09:01:49.853Z,72.81
2022-08-02T09:02:41.633Z,72.92
2022-08-02T09:03:40.646Z,71.72
2022-08-02T09:04:40.642Z,72.22
2022-08-02T09:05:41.605Z,73.58
2022-08-02T09:06:40.586Z,72.68
2022-08-02T09:07:40.578Z,72.38
2022-08-02T09:08:40.567Z,73.38
2022-08-02T09:09:40.588Z,72.49
2022-08-02T09:10:40.555Z,72.38
2022-08-02T09:11:40.537Z,72.98
2022-08-02T09:12:40.526Z,73.28
2022-08-02T09:13:45.632Z,72.28
2022-08-02T09:14:41.528Z,71.75
2022-08-02T09:15:40.496Z,72.15
2022-08-02T09:16:40.491Z,71.75
2022-08-02T09:17:40.470Z,71.45
2022-08-02T09:18:40.467Z,70.95
2022-08-02T09:19:45.639Z,71.15
2022-08-02T09:20:41.468Z,71.05
2022-08-02T09:21:40.432Z,71.35
2022-08-02T09:22:40.413Z,71.42
2022-08-02T09:23:40.423Z,71.12
2022-08-02T09:24:40.422Z,70.52
2022-08-02T09:25:40.384Z,70.42
2022-08-02T09:26:41.395Z,69.99
2022-08-02T09:27:40.362Z,69.39
2022-08-02T09:28:40.350Z,69.46
2022-08-02T09:30:05.994Z,69.43
2022-08-02T09:30:41.351Z,69.53
2022-08-02T09:31:45.392Z,67.70
2022-08-02T09:32:41.303Z,65.98
2022-08-02T09:33:40.293Z,65.48
2022-08-02T09:34:40.291Z,65.25
2022-08-02T09:36:06.202Z,64.36
2022-08-02T09:36:41.264Z,64.98
2022-08-02T09:37:40.254Z,65.95
2022-08-02T09:38:40.250Z,63.86
2022-08-02T09:39:40.234Z,64.86
2022-08-02T09:40:41.245Z,64.39
2022-08-02T09:41:40.212Z,65.95
2022-08-02T09:42:40.193Z,63.60
2022-08-02T09:44:03.045Z,64.19
2022-08-02T09:44:41.167Z,64.12
2022-08-02T09:45:40.163Z,64.32
2022-08-02T09:46:40.178Z,64.32
2022-08-02T09:47:40.148Z,64.89
2022-08-02T09:48:40.129Z,65.39
2022-08-02T09:49:40.202Z,65.48
2022-08-02T09:50:40.111Z,64.86
2022-08-02T09:51:40.134Z,65.95
2022-08-02T09:52:43.621Z,65.35
2022-08-02T09:53:40.078Z,65.35
2022-08-02T09:54:40.104Z,64.06
2022-08-02T09:55:40.059Z,64.66
2022-08-02T09:56:40.037Z,65.35
2022-08-02T09:57:40.053Z,64.33
2022-08-02T09:58:40.020Z,64.83
2022-08-02T09:59:40.031Z,64.23
2022-08-02T10:00:52.400Z,63.21
2022-08-02T10:01:42.616Z,63.51
2022-08-02T10:02:41.016Z,63.18
2022-08-02T10:03:40.004Z,62.48
2022-08-02T10:04:52.676Z,62.26
2022-08-02T10:05:54.025Z,61.26
2022-08-02T10:06:41.003Z,61.53
2022-08-02T10:07:39.920Z,62.12
2022-08-02T10:08:39.909Z,61.60
2022-08-02T10:09:46.355Z,61.18
2022-08-02T10:10:40.886Z,60.35
2022-08-02T10:11:39.881Z,59.33
2022-08-02T10:12:39.878Z,60.03
2022-08-02T10:13:39.869Z,58.61
2022-08-02T10:14:39.875Z,56.54
2022-08-02T10:15:39.833Z,56.41
2022-08-02T10:16:40.832Z,57.10
2022-08-02T10:17:39.824Z,56.38
2022-08-02T10:18:41.311Z,55.47
2022-08-02T10:20:03.077Z,54.65
2022-08-02T10:20:40.805Z,55.60
2022-08-02T10:21:43.706Z,55.83
2022-08-02T10:22:40.758Z,54.63
2022-08-02T10:23:39.748Z,53.49
2022-08-02T10:24:39.765Z,52.97
2022-08-02T10:25:40.727Z,52.26
2022-08-02T10:26:39.708Z,53.31
2022-08-02T10:28:03.630Z,51.74
2022-08-02T10:28:40.687Z,51.22
2022-08-02T10:29:53.836Z,50.73
2022-08-02T10:30:40.689Z,51.12
2022-08-02T10:31:39.660Z,50.29
2022-08-02T10:32:39.649Z,49.48
2022-08-02T10:33:39.639Z,49.16
2022-08-02T10:34:39.621Z,48.13
2022-08-02T10:35:39.639Z,47.55
2022-08-02T10:36:39.600Z,47.42
2022-08-02T10:37:39.593Z,46.54
2022-08-02T10:38:39.582Z,46.95
2022-08-02T10:39:39.571Z,48.11
2022-08-02T10:40:39.583Z,47.69
2022-08-02T10:41:40.571Z,47.37
2022-08-02T10:42:39.533Z,46.88
2022-08-02T10:43:39.524Z,46.30
2022-08-02T10:44:39.512Z,47.49
2022-08-02T10:45:39.531Z,47.52
2022-08-02T10:46:39.513Z,47.59
2022-08-02T10:47:39.483Z,48.08
2022-08-02T10:48:39.473Z,48.13
2022-08-02T10:49:40.487Z,49.21
2022-08-02T10:50:39.454Z,48.72
2022-08-02T10:51:39.449Z,47.83
2022-08-02T10:52:39.457Z,47.79
2022-08-02T10:53:39.426Z,47.30
2022-08-02T10:54:39.407Z,46.59
2022-08-02T10:55:39.404Z,46.59
2022-08-02T10:56:39.523Z,48.40
2022-08-02T10:57:39.399Z,47.54
2022-08-02T10:58:39.368Z,48.38
2022-08-02T10:59:39.358Z,47.27
2022-08-02T11:00:39.370Z,47.10
2022-08-02T11:01:40.313Z,46.76
2022-08-02T11:02:39.348Z,46.98
2022-08-02T11:03:40.082Z,46.84
2022-08-02T11:04:39.304Z,48.26
2022-08-02T11:05:43.062Z,44.83
2022-08-02T11:06:39.284Z,45.79
2022-08-02T11:07:39.309Z,44.40
2022-08-02T11:08:39.281Z,44.57
2022-08-02T11:09:39.261Z,44.82
2022-08-02T11:10:39.249Z,43.80
2022-08-02T11:11:54.159Z,43.71
2022-08-02T11:12:40.216Z,43.96
2022-08-02T11:13:39.257Z,43.71
2022-08-02T11:14:39.197Z,45.67
2022-08-02T11:15:39.195Z,45.93
2022-08-02T11:16:39.185Z,46.27
2022-08-02T11:17:41.076Z,46.20
2022-08-02T11:18:39.175Z,47.35
2022-08-02T11:19:39.155Z,47.89
2022-08-02T11:20:39.137Z,48.50
2022-08-02T11:21:39.126Z,47.69
2022-08-02T11:22:39.122Z,46.22
2022-08-02T11:23:44.047Z,46.66
2022-08-02T11:24:40.110Z,46.08
2022-08-02T11:26:02.671Z,47.64
2022-08-02T11:26:40.069Z,47.00
2022-08-02T11:27:39.066Z,46.24
2022-08-02T11:28:39.050Z,47.99
2022-08-02T11:29:39.147Z,47.30
2022-08-02T11:30:39.049Z,47.55
2022-08-02T11:31:39.023Z,47.13
2022-08-02T11:32:39.011Z,47.86
2022-08-02T11:33:39.001Z,48.43
2022-08-02T11:34:38.995Z,49.58
2022-08-02T11:35:39.003Z,50.26
2022-08-02T11:36:38.964Z,49.55
2022-08-02T11:37:38.982Z,48.49
2022-08-02T11:38:38.945Z,50.29
2022-08-02T11:39:38.936Z,50.76
2022-08-02T11:40:38.955Z,49.35
2022-08-02T11:41:46.839Z,47.74
2022-08-02T11:42:39.905Z,48.21
2022-08-02T11:43:38.903Z,47.35
2022-08-02T11:44:38.915Z,46.23
2022-08-02T11:45:38.897Z,46.37
2022-08-02T11:46:38.859Z,47.55
2022-08-02T11:47:38.857Z,47.89
2022-08-02T11:48:38.852Z,49.38
2022-08-02T11:49:38.985Z,48.38
2022-08-02T11:50:38.818Z,48.82
2022-08-02T11:51:38.839Z,48.13
2022-08-02T11:52:38.823Z,47.64
2022-08-02T11:53:38.790Z,47.17
2022-08-02T11:54:38.782Z,47.96
2022-08-02T11:55:38.772Z,48.01
2022-08-02T11:56:38.794Z,48.01
2022-08-02T11:58:04.533Z,48.11
2022-08-02T11:58:41.897Z,47.91
2022-08-02T11:59:38.731Z,47.91
2022-08-02T12:00:38.713Z,47.30
2022-08-02T12:01:45.067Z,47.77
2022-08-02T12:02:39.693Z,47.67
2022-08-02T12:03:38.769Z,47.79
2022-08-02T12:04:38.686Z,49.55
2022-08-02T12:06:05.228Z,48.30
2022-08-02T12:06:39.684Z,47.81
2022-08-02T12:07:45.808Z,48.08
2022-08-02T12:08:39.635Z,48.67
2022-08-02T12:09:41.216Z,48.30
2022-08-02T12:10:38.616Z,48.99
2022-08-02T12:11:38.814Z,48.57
2022-08-02T12:12:38.596Z,48.60
2022-08-02T12:13:38.578Z,49.68
2022-08-02T12:14:38.574Z,48.69
2022-08-02T12:15:38.580Z,48.72
2022-08-02T12:16:38.579Z,48.82
2022-08-02T12:17:38.547Z,49.31
2022-08-02T12:18:39.530Z,49.21
2022-08-02T12:19:38.519Z,49.36
2022-08-02T12:20:38.510Z,48.18
2022-08-02T12:21:38.522Z,48.86
2022-08-02T12:22:41.793Z,48.67
2022-08-02T12:23:38.481Z,49.16
2022-08-02T12:24:39.470Z,48.85
2022-08-02T12:25:38.461Z,47.64
2022-08-02T12:26:38.452Z,47.74
2022-08-02T12:27:38.456Z,46.56
2022-08-02T12:28:38.424Z,48.33
2022-08-02T12:29:57.871Z,48.92
2022-08-02T12:30:39.408Z,48.09
2022-08-02T12:31:38.392Z,46.94
2022-08-02T12:32:39.414Z,48.25
2022-08-02T12:33:39.508Z,47.40
2022-08-02T12:34:46.155Z,46.94
2022-08-02T12:35:38.346Z,46.39
2022-08-02T12:36:38.346Z,44.73
2022-08-02T12:37:38.330Z,44.60
2022-08-02T12:38:38.346Z,45.04
2022-08-02T12:39:38.337Z,44.87
2022-08-02T12:40:38.307Z,45.45
2022-08-02T12:41:38.295Z,45.23
2022-08-02T12:42:39.289Z,45.33
2022-08-02T12:43:38.289Z,44.09
2022-08-02T12:44:38.258Z,44.45
2022-08-02T12:45:41.181Z,45.12
2022-08-02T12:46:42.185Z,44.53
2022-08-02T12:47:39.230Z,42.68
2022-08-02T12:48:40.437Z,43.85
2022-08-02T12:49:39.232Z,42.21
2022-08-02T12:50:38.201Z,43.32
2022-08-02T12:51:51.163Z,44.49
2022-08-02T12:52:39.180Z,44.67
2022-08-02T12:53:38.184Z,43.46